createdAt,value
2023-01-31T00:01:50.893Z,100637.59
2023-01-31T00:04:17.930Z,100649.03
2023-01-31T00:06:50.924Z,100645.94
2023-01-31T00:09:18.768Z,100647.31
2023-01-31T00:11:46.085Z,100646.53
2023-01-31T00:14:20.654Z,100653.31
2023-01-31T00:16:48.300Z,100652.88
2023-01-31T00:19:15.382Z,100664.03
2023-01-31T00:21:43.832Z,100667.41
2023-01-31T00:24:14.042Z,100667.53
2023-01-31T00:26:41.812Z,100671.16
2023-01-31T00:29:09.986Z,100657.72
2023-01-31T00:31:39.149Z,100665.41
2023-01-31T00:34:07.067Z,100674.41
2023-01-31T00:36:35.990Z,100680.91
2023-01-31T00:39:07.005Z,100684.06
2023-01-31T00:41:37.569Z,100692.22
2023-01-31T00:44:06.559Z,100694.31
2023-01-31T00:46:33.879Z,100696.72
2023-01-31T00:49:01.972Z,100706.78
2023-01-31T00:51:28.939Z,100713.34
2023-01-31T00:53:56.038Z,100706.34
2023-01-31T00:56:25.622Z,100712.00
2023-01-31T00:58:55.649Z,100722.75
2023-01-31T01:01:29.147Z,100725.44
2023-01-31T01:03:59.880Z,100715.16
2023-01-31T01:06:31.582Z,100721.72
2023-01-31T01:08:59.913Z,100726.84
2023-01-31T01:11:33.332Z,100731.25
2023-01-31T01:14:01.770Z,100726.84
2023-01-31T01:16:38.482Z,100725.66
2023-01-31T01:19:13.376Z,100730.44
2023-01-31T01:21:41.072Z,100734.44
2023-01-31T01:24:17.467Z,100741.22
2023-01-31T01:26:44.938Z,100740.31
2023-01-31T01:29:12.793Z,100741.94
2023-01-31T01:31:41.005Z,100734.31
2023-01-31T01:34:15.731Z,100736.75
2023-01-31T01:36:44.672Z,100740.84
2023-01-31T01:39:13.049Z,100742.25
2023-01-31T01:41:41.393Z,100749.28
2023-01-31T01:45:02.063Z,100751.19
2023-01-31T01:47:54.190Z,100747.88
2023-01-31T01:50:32.892Z,100755.69
2023-01-31T01:53:15.794Z,100764.78
2023-01-31T01:55:57.325Z,100764.06
2023-01-31T01:58:42.632Z,100768.97
2023-01-31T02:01:13.719Z,100779.19
2023-01-31T02:03:41.871Z,100781.06
2023-01-31T02:06:09.150Z,100792.84
2023-01-31T02:08:40.228Z,100781.84
2023-01-31T02:11:25.655Z,100783.78
2023-01-31T02:14:06.170Z,100789.03
2023-01-31T02:16:33.342Z,100793.50
2023-01-31T02:19:01.021Z,100800.97
2023-01-31T02:21:55.269Z,100812.00
2023-01-31T02:24:50.169Z,100815.53
2023-01-31T02:27:34.439Z,100827.81
2023-01-31T02:30:46.790Z,100836.75
2023-01-31T02:34:01.172Z,100839.00
2023-01-31T02:37:01.802Z,100846.34
2023-01-31T02:39:53.088Z,100857.81
2023-01-31T02:43:02.673Z,100847.41
2023-01-31T02:45:45.934Z,100859.63
2023-01-31T02:49:04.553Z,100851.09
2023-01-31T02:51:42.340Z,100857.03
2023-01-31T02:54:44.453Z,100849.13
2023-01-31T02:57:13.605Z,100859.81
2023-01-31T02:59:41.565Z,100846.47
2023-01-31T03:02:09.188Z,100846.28
2023-01-31T03:04:36.765Z,100841.34
2023-01-31T03:07:26.857Z,100844.69
2023-01-31T03:10:27.736Z,100846.28
2023-01-31T03:13:12.059Z,100858.91
2023-01-31T03:16:59.789Z,100847.59
2023-01-31T03:19:47.837Z,100857.38
2023-01-31T03:22:24.359Z,100865.19
2023-01-31T03:24:54.030Z,100860.94
2023-01-31T03:27:21.971Z,100854.22
2023-01-31T03:29:49.260Z,100854.78
2023-01-31T03:32:27.878Z,100862.97
2023-01-31T03:34:55.545Z,100874.09
2023-01-31T03:37:39.597Z,100868.19
2023-01-31T03:40:41.382Z,100878.97
2023-01-31T03:43:58.838Z,100882.13
2023-01-31T03:46:44.712Z,100879.38
2023-01-31T03:49:16.391Z,100885.31
2023-01-31T03:51:54.795Z,100891.19
2023-01-31T03:54:30.776Z,100888.50
2023-01-31T03:57:14.837Z,100883.34
2023-01-31T03:59:46.489Z,100887.19
2023-01-31T04:02:17.003Z,100892.09
2023-01-31T04:04:58.622Z,100891.47
2023-01-31T04:07:26.646Z,100889.09
2023-01-31T04:09:53.815Z,100892.47
2023-01-31T04:12:20.741Z,100885.56
2023-01-31T04:14:47.943Z,100882.38
2023-01-31T04:17:14.866Z,100883.34
2023-01-31T04:19:42.038Z,100888.19
2023-01-31T04:22:09.029Z,100889.81
2023-01-31T04:24:36.947Z,100889.22
2023-01-31T04:27:03.918Z,100889.03
2023-01-31T04:29:30.855Z,100891.63
2023-01-31T04:31:58.043Z,100888.31
2023-01-31T04:34:25.998Z,100891.50
2023-01-31T04:36:53.184Z,100894.47
2023-01-31T04:39:20.513Z,100896.19
2023-01-31T04:41:47.570Z,100900.09
2023-01-31T04:44:17.306Z,100906.06
2023-01-31T04:46:46.660Z,100918.38
2023-01-31T04:49:15.413Z,100923.44
2023-01-31T04:51:45.236Z,100929.44
2023-01-31T04:54:15.454Z,100936.13
2023-01-31T04:56:42.753Z,100936.34
2023-01-31T04:59:16.100Z,100943.13
2023-01-31T05:01:43.818Z,100948.09
2023-01-31T05:04:12.182Z,100942.19
2023-01-31T05:06:39.247Z,100942.03
2023-01-31T05:09:09.252Z,100942.19
2023-01-31T05:11:39.114Z,100939.66
2023-01-31T05:14:06.969Z,100942.78
2023-01-31T05:16:34.358Z,100937.03
2023-01-31T05:19:05.102Z,100942.09
2023-01-31T05:21:52.503Z,100944.44
2023-01-31T05:24:20.240Z,100945.13
2023-01-31T05:26:47.743Z,100947.41
2023-01-31T05:29:15.034Z,100940.72
2023-01-31T05:31:42.374Z,100946.91
2023-01-31T05:34:10.697Z,100955.25
2023-01-31T05:36:37.709Z,100950.19
2023-01-31T05:39:08.014Z,100962.34
2023-01-31T05:41:35.030Z,100960.53
2023-01-31T05:44:02.756Z,100968.41
2023-01-31T05:46:33.187Z,100967.56
2023-01-31T05:49:01.038Z,100970.84
2023-01-31T05:51:28.150Z,100970.84
2023-01-31T05:53:55.323Z,100974.38
2023-01-31T05:56:25.265Z,100972.31
2023-01-31T05:58:55.402Z,100979.06
2023-01-31T06:01:27.333Z,100967.16
2023-01-31T06:03:54.945Z,100970.25
2023-01-31T06:06:34.428Z,100965.09
2023-01-31T06:09:01.438Z,100964.88
2023-01-31T06:11:28.469Z,100963.06
2023-01-31T06:14:04.585Z,100965.00
2023-01-31T06:16:32.543Z,100963.06
2023-01-31T06:19:00.190Z,100967.09
2023-01-31T06:21:39.874Z,100980.34
2023-01-31T06:24:07.728Z,100967.59
2023-01-31T06:26:34.928Z,100975.78
2023-01-31T06:29:01.921Z,100984.19
2023-01-31T06:31:29.158Z,100988.63
2023-01-31T06:33:56.255Z,100987.03
2023-01-31T06:36:26.693Z,100978.19
2023-01-31T06:38:56.857Z,100993.44
2023-01-31T06:41:24.066Z,100997.38
2023-01-31T06:43:51.493Z,100998.88
2023-01-31T06:46:18.840Z,101001.47
2023-01-31T06:48:47.390Z,101000.63
2023-01-31T06:51:16.246Z,100992.50
2023-01-31T06:53:43.263Z,100989.19
2023-01-31T06:56:10.936Z,100997.00
2023-01-31T06:58:37.967Z,101001.81
2023-01-31T07:01:13.102Z,101003.50
2023-01-31T07:03:43.675Z,100993.00
2023-01-31T07:06:12.042Z,100988.88
2023-01-31T07:08:39.879Z,100995.97
2023-01-31T07:11:06.954Z,100997.94
2023-01-31T07:13:34.230Z,100997.47
2023-01-31T07:16:01.486Z,100996.75
2023-01-31T07:18:29.087Z,100996.13
2023-01-31T07:20:56.289Z,100992.34
2023-01-31T07:23:23.323Z,100979.59
2023-01-31T07:25:50.771Z,100982.00
2023-01-31T07:28:18.043Z,100975.59
2023-01-31T07:30:46.238Z,100969.97
2023-01-31T07:33:13.265Z,100985.81
2023-01-31T07:35:43.136Z,100988.47
2023-01-31T07:38:11.409Z,100981.22
2023-01-31T07:40:44.369Z,100982.25
2023-01-31T07:43:11.296Z,100981.28
2023-01-31T07:45:39.969Z,100979.91
2023-01-31T07:48:10.332Z,100980.69
2023-01-31T07:50:39.263Z,100978.09
2023-01-31T07:53:06.481Z,100976.78
2023-01-31T07:55:33.385Z,100981.19
2023-01-31T07:58:00.305Z,100978.47
2023-01-31T08:00:46.020Z,100982.81
2023-01-31T08:03:34.636Z,100971.59
2023-01-31T08:06:13.274Z,100980.75
2023-01-31T08:08:43.420Z,100986.00
2023-01-31T08:11:10.841Z,100973.34
2023-01-31T08:13:39.763Z,100974.44
2023-01-31T08:16:09.627Z,100967.34
2023-01-31T08:18:38.865Z,100975.88
2023-01-31T08:21:07.558Z,100974.69
2023-01-31T08:23:35.245Z,100965.88
2023-01-31T08:26:23.914Z,100967.97
2023-01-31T08:28:54.015Z,100972.50
2023-01-31T08:31:25.574Z,100972.59
2023-01-31T08:33:54.122Z,100965.13
2023-01-31T08:36:31.583Z,100960.84
2023-01-31T08:38:59.649Z,100964.88
2023-01-31T08:41:29.272Z,100967.34
2023-01-31T08:43:58.950Z,100959.94
2023-01-31T08:46:32.990Z,100956.06
2023-01-31T08:49:04.548Z,100963.84
2023-01-31T08:51:35.153Z,100963.72
2023-01-31T08:54:02.304Z,100961.63
2023-01-31T08:56:29.818Z,100965.19
2023-01-31T08:58:58.336Z,100956.66
2023-01-31T09:01:25.663Z,100954.41
2023-01-31T09:03:56.924Z,100952.84
2023-01-31T09:06:27.377Z,100952.50
2023-01-31T09:08:58.267Z,100947.06
2023-01-31T09:11:30.479Z,100941.31
2023-01-31T09:13:58.652Z,100936.47
2023-01-31T09:16:29.037Z,100936.16
2023-01-31T09:18:57.014Z,100944.56
2023-01-31T09:21:24.716Z,100939.44
2023-01-31T09:23:58.799Z,100934.06
2023-01-31T09:26:26.267Z,100931.44
2023-01-31T09:28:53.688Z,100922.28
2023-01-31T09:31:22.454Z,100925.53
2023-01-31T09:33:49.763Z,100926.88
2023-01-31T09:36:22.542Z,100912.88
2023-01-31T09:38:58.647Z,100918.91
2023-01-31T09:41:34.527Z,100914.56
2023-01-31T09:44:27.404Z,100913.66
2023-01-31T09:47:21.032Z,100915.03
2023-01-31T09:50:19.340Z,100906.03
2023-01-31T09:52:46.899Z,100899.94
2023-01-31T09:55:39.510Z,100891.25
2023-01-31T09:58:51.635Z,100889.25
2023-01-31T10:01:49.141Z,100878.75
2023-01-31T10:04:52.333Z,100885.63
2023-01-31T10:07:50.158Z,100873.56
2023-01-31T10:10:39.663Z,100879.72
2023-01-31T10:13:29.671Z,100876.31
2023-01-31T10:16:35.064Z,100870.63
2023-01-31T10:19:29.371Z,100861.66
2023-01-31T10:22:05.042Z,100855.44
2023-01-31T10:24:43.231Z,100849.47
2023-01-31T10:27:33.224Z,100841.97
2023-01-31T10:30:02.990Z,100841.97
2023-01-31T10:32:45.125Z,100831.31
2023-01-31T10:35:20.937Z,100837.34
2023-01-31T10:38:04.142Z,100828.00
2023-01-31T10:40:39.822Z,100822.41
2023-01-31T10:43:40.419Z,100812.44
2023-01-31T10:46:12.698Z,100802.50
2023-01-31T10:48:43.219Z,100797.22
2023-01-31T10:52:04.511Z,100790.78
2023-01-31T10:54:42.630Z,100799.06
2023-01-31T10:57:14.794Z,100791.34
2023-01-31T10:59:47.861Z,100780.00
2023-01-31T11:02:28.108Z,100778.41
2023-01-31T11:04:59.725Z,100774.16
2023-01-31T11:07:31.632Z,100762.25
2023-01-31T11:10:19.013Z,100765.59
2023-01-31T11:13:05.380Z,100757.25
2023-01-31T11:15:42.938Z,100754.72
2023-01-31T11:18:29.383Z,100749.72
2023-01-31T11:20:58.838Z,100747.78
2023-01-31T11:23:32.403Z,100734.91
2023-01-31T11:26:00.199Z,100728.59
2023-01-31T11:28:41.011Z,100712.56
2023-01-31T11:31:25.290Z,100720.59
2023-01-31T11:34:09.137Z,100694.22
2023-01-31T11:36:46.332Z,100696.06
2023-01-31T11:39:39.640Z,100702.53
2023-01-31T11:42:17.214Z,100702.66
2023-01-31T11:45:04.188Z,100702.09
2023-01-31T11:47:49.578Z,100698.31
2023-01-31T11:51:01.226Z,100691.63
2023-01-31T11:53:43.213Z,100688.28
2023-01-31T11:56:31.076Z,100670.63
2023-01-31T11:59:07.638Z,100664.03
2023-01-31T12:01:44.904Z,100662.06
2023-01-31T12:04:30.652Z,100651.63
2023-01-31T12:07:26.860Z,100640.19
2023-01-31T12:09:53.950Z,100624.06
2023-01-31T12:12:36.449Z,100607.38
2023-01-31T12:15:14.846Z,100591.28
2023-01-31T12:17:49.472Z,100591.63
2023-01-31T12:20:54.003Z,100586.44
2023-01-31T12:24:08.762Z,100571.66
2023-01-31T12:26:49.634Z,100572.84
2023-01-31T12:30:14.461Z,100567.50
2023-01-31T12:33:13.578Z,100565.50
2023-01-31T12:36:22.740Z,100556.03
2023-01-31T12:39:28.003Z,100559.19
2023-01-31T12:42:19.086Z,100563.41
2023-01-31T12:45:10.521Z,100561.00
2023-01-31T12:48:12.577Z,100552.78
2023-01-31T12:51:15.091Z,100542.78
2023-01-31T12:54:28.953Z,100544.75
2023-01-31T12:57:30.184Z,100531.56
2023-01-31T13:00:44.710Z,100544.28
2023-01-31T13:03:53.949Z,100533.50
2023-01-31T13:06:34.473Z,100518.22
2023-01-31T13:09:28.031Z,100512.44
2023-01-31T13:12:15.720Z,100505.25
2023-01-31T13:15:05.354Z,100501.00
2023-01-31T13:17:38.655Z,100507.69
2023-01-31T13:20:47.234Z,100511.78
2023-01-31T13:24:15.471Z,100505.00
2023-01-31T13:27:29.934Z,100499.47
2023-01-31T13:30:08.332Z,100493.91
2023-01-31T13:32:45.108Z,100497.13
2023-01-31T13:35:23.902Z,100488.94
2023-01-31T13:37:56.798Z,100489.56
2023-01-31T13:40:38.284Z,100484.59
2023-01-31T13:43:15.199Z,100483.25
2023-01-31T13:46:08.596Z,100482.44
2023-01-31T13:49:03.457Z,100478.13
2023-01-31T13:51:43.718Z,100480.41
2023-01-31T13:54:10.624Z,100470.59
2023-01-31T13:56:41.111Z,100475.00
2023-01-31T13:59:18.208Z,100466.38
2023-01-31T14:01:51.034Z,100471.19
2023-01-31T14:04:18.775Z,100478.88
2023-01-31T14:07:13.754Z,100477.59
2023-01-31T14:09:52.169Z,100473.31
2023-01-31T14:12:19.286Z,100471.28
2023-01-31T14:15:48.056Z,100467.09
2023-01-31T14:18:45.970Z,100457.19
2023-01-31T14:21:32.192Z,100455.72
2023-01-31T14:24:02.305Z,100443.31
2023-01-31T14:26:54.170Z,100457.22
2023-01-31T14:29:26.668Z,100446.47
2023-01-31T14:31:58.123Z,100443.88
2023-01-31T14:34:30.875Z,100441.84
2023-01-31T14:37:22.319Z,100427.72
2023-01-31T14:40:28.147Z,100437.03
2023-01-31T14:43:56.359Z,100424.38
2023-01-31T14:46:48.870Z,100435.06
2023-01-31T14:50:18.497Z,100435.47
2023-01-31T14:53:38.213Z,100430.38
2023-01-31T14:57:04.577Z,100430.22
2023-01-31T14:59:46.446Z,100424.19
2023-01-31T15:03:25.481Z,100418.16
2023-01-31T15:06:24.871Z,100419.72
2023-01-31T15:09:27.875Z,100415.50
2023-01-31T15:11:57.861Z,100403.44
2023-01-31T15:14:45.085Z,100401.41
2023-01-31T15:17:35.990Z,100410.41
2023-01-31T15:20:24.263Z,100409.84
2023-01-31T15:22:58.607Z,100395.22
2023-01-31T15:25:48.026Z,100402.63
2023-01-31T15:28:26.615Z,100405.41
2023-01-31T15:31:00.391Z,100397.63
2023-01-31T15:33:37.471Z,100392.44
2023-01-31T15:36:18.599Z,100398.56
2023-01-31T15:38:51.556Z,100400.22
2023-01-31T15:41:28.728Z,100391.69
2023-01-31T15:44:21.966Z,100397.34
2023-01-31T15:46:53.816Z,100380.94
2023-01-31T15:49:41.374Z,100380.78
2023-01-31T15:52:08.511Z,100377.50
2023-01-31T15:54:35.928Z,100365.09
2023-01-31T15:57:04.128Z,100367.06
2023-01-31T15:59:34.229Z,100367.97
2023-01-31T16:02:04.757Z,100363.38
2023-01-31T16:04:32.411Z,100367.25
2023-01-31T16:06:59.607Z,100372.25
2023-01-31T16:09:33.417Z,100373.16
2023-01-31T16:12:02.791Z,100364.84
2023-01-31T16:14:33.854Z,100366.53
2023-01-31T16:17:01.190Z,100368.56
2023-01-31T16:19:36.004Z,100368.91
2023-01-31T16:22:03.989Z,100385.41
2023-01-31T16:24:34.626Z,100377.81
2023-01-31T16:27:15.596Z,100387.28
2023-01-31T16:29:53.045Z,100392.38
2023-01-31T16:32:32.264Z,100400.03
2023-01-31T16:35:09.279Z,100388.94
2023-01-31T16:37:42.083Z,100389.41
2023-01-31T16:40:31.368Z,100390.69
2023-01-31T16:43:22.459Z,100382.81
2023-01-31T16:46:18.080Z,100379.84
2023-01-31T16:49:25.971Z,100374.94
2023-01-31T16:52:26.287Z,100368.56
2023-01-31T16:55:00.271Z,100359.38
2023-01-31T16:57:37.364Z,100359.22
2023-01-31T17:00:25.497Z,100340.13
2023-01-31T17:02:58.974Z,100333.09
2023-01-31T17:05:46.391Z,100340.59
2023-01-31T17:08:21.298Z,100350.69
2023-01-31T17:10:49.461Z,100347.59
2023-01-31T17:13:24.418Z,100356.13
2023-01-31T17:15:52.233Z,100345.97
2023-01-31T17:18:19.423Z,100352.09
2023-01-31T17:20:51.533Z,100342.06
2023-01-31T17:23:21.086Z,100340.78
2023-01-31T17:25:48.148Z,100336.13
2023-01-31T17:28:15.558Z,100323.41
2023-01-31T17:30:44.866Z,100317.41
2023-01-31T17:33:15.442Z,100315.94
2023-01-31T17:35:50.087Z,100299.53
2023-01-31T17:38:17.200Z,100299.44
2023-01-31T17:40:47.027Z,100300.72
2023-01-31T17:43:22.382Z,100309.06
2023-01-31T17:45:50.038Z,100302.78
2023-01-31T17:48:26.328Z,100287.22
2023-01-31T17:50:54.233Z,100289.59
2023-01-31T17:53:21.316Z,100283.56
2023-01-31T17:55:48.533Z,100285.88
2023-01-31T17:58:22.093Z,100272.06
2023-01-31T18:00:49.432Z,100273.72
2023-01-31T18:03:25.377Z,100268.44
2023-01-31T18:05:52.645Z,100252.03
2023-01-31T18:08:22.497Z,100266.59
2023-01-31T18:10:49.466Z,100265.16
2023-01-31T18:13:16.431Z,100263.78
2023-01-31T18:15:43.381Z,100266.63
2023-01-31T18:18:10.531Z,100247.09
2023-01-31T18:20:39.424Z,100236.56
2023-01-31T18:23:07.081Z,100234.66
2023-01-31T18:25:35.915Z,100243.88
2023-01-31T18:28:03.044Z,100244.84
2023-01-31T18:30:30.352Z,100231.75
2023-01-31T18:32:58.270Z,100226.66
2023-01-31T18:35:25.620Z,100218.75
2023-01-31T18:37:52.563Z,100219.91
2023-01-31T18:40:19.587Z,100223.44
2023-01-31T18:42:46.920Z,100230.06
2023-01-31T18:45:14.279Z,100235.03
2023-01-31T18:47:41.319Z,100222.19
2023-01-31T18:50:09.342Z,100223.84
2023-01-31T18:52:36.332Z,100224.06
2023-01-31T18:55:06.725Z,100215.31
2023-01-31T18:57:33.709Z,100218.19
2023-01-31T19:00:04.164Z,100214.00
2023-01-31T19:02:31.294Z,100215.34
2023-01-31T19:05:01.696Z,100209.56
2023-01-31T19:07:28.653Z,100252.50
2023-01-31T19:09:56.863Z,100285.34
2023-01-31T19:12:23.876Z,100275.91
2023-01-31T19:14:56.345Z,100268.75
2023-01-31T19:17:26.344Z,100265.91
2023-01-31T19:19:53.723Z,100282.50
2023-01-31T19:22:28.343Z,100271.41
2023-01-31T19:24:56.576Z,100257.63
2023-01-31T19:27:27.200Z,100253.72
2023-01-31T19:29:54.100Z,100239.28
2023-01-31T19:32:22.406Z,100243.56
2023-01-31T19:34:53.995Z,100250.94
2023-01-31T19:37:23.746Z,100260.69
2023-01-31T19:39:50.824Z,100258.16
2023-01-31T19:42:18.069Z,100260.66
2023-01-31T19:44:45.739Z,100280.00
2023-01-31T19:47:12.774Z,100270.47
2023-01-31T19:49:42.696Z,100271.91
2023-01-31T19:52:15.435Z,100280.03
2023-01-31T19:54:42.395Z,100276.09
2023-01-31T19:57:09.432Z,100281.28
2023-01-31T19:59:36.652Z,100300.06
2023-01-31T20:02:08.207Z,100283.03
2023-01-31T20:04:35.246Z,100296.75
2023-01-31T20:07:02.201Z,100297.22
2023-01-31T20:09:32.074Z,100297.56
2023-01-31T20:11:59.337Z,100295.81
2023-01-31T20:14:28.555Z,100297.31
2023-01-31T20:16:58.556Z,100297.84
2023-01-31T20:19:25.622Z,100299.06
2023-01-31T20:21:52.994Z,100302.19
2023-01-31T20:24:20.048Z,100315.41
2023-01-31T20:26:47.126Z,100307.81
2023-01-31T20:29:14.482Z,100313.66
2023-01-31T20:31:43.851Z,100322.88
2023-01-31T20:34:14.712Z,100320.47
2023-01-31T20:36:41.754Z,100323.41
2023-01-31T20:39:12.183Z,100327.22
2023-01-31T20:41:42.805Z,100326.50
2023-01-31T20:44:09.997Z,100337.47
2023-01-31T20:46:36.937Z,100336.19
2023-01-31T20:49:06.200Z,100332.78
2023-01-31T20:51:36.369Z,100332.53
2023-01-31T20:54:03.820Z,100342.56
2023-01-31T20:56:30.732Z,100346.31
2023-01-31T20:58:57.709Z,100352.06
2023-01-31T21:01:24.827Z,100363.03
2023-01-31T21:03:52.020Z,100360.31
2023-01-31T21:06:18.942Z,100361.50
2023-01-31T21:08:48.362Z,100360.69
2023-01-31T21:11:17.768Z,100355.41
2023-01-31T21:13:44.915Z,100366.00
2023-01-31T21:16:15.306Z,100375.34
2023-01-31T21:18:45.359Z,100382.59
2023-01-31T21:21:23.338Z,100382.34
2023-01-31T21:23:57.239Z,100397.91
2023-01-31T21:26:26.804Z,100398.28
2023-01-31T21:28:54.121Z,100403.41
2023-01-31T21:31:21.514Z,100409.56
2023-01-31T21:33:52.571Z,100427.13
2023-01-31T21:36:25.039Z,100424.13
2023-01-31T21:39:14.101Z,100434.03
2023-01-31T21:41:59.832Z,100419.41
2023-01-31T21:44:26.695Z,100418.06
2023-01-31T21:46:56.464Z,100397.78
2023-01-31T21:49:27.128Z,100397.69
2023-01-31T21:51:59.997Z,100393.09
2023-01-31T21:54:30.028Z,100382.41
2023-01-31T21:56:57.680Z,100383.66
2023-01-31T21:59:25.321Z,100387.41
2023-01-31T22:01:52.553Z,100399.66
2023-01-31T22:04:21.121Z,100408.25
2023-01-31T22:06:52.159Z,100405.84
2023-01-31T22:09:19.202Z,100403.44
2023-01-31T22:11:48.045Z,100404.19
2023-01-31T22:14:17.204Z,100412.44
2023-01-31T22:16:44.829Z,100413.91
2023-01-31T22:19:13.862Z,100405.00
2023-01-31T22:21:43.040Z,100399.53
2023-01-31T22:24:11.542Z,100400.47
2023-01-31T22:26:43.871Z,100405.72
2023-01-31T22:29:15.518Z,100402.38
2023-01-31T22:31:44.748Z,100406.72
2023-01-31T22:34:16.464Z,100399.78
2023-01-31T22:36:44.292Z,100404.97
2023-01-31T22:39:15.771Z,100405.19
2023-01-31T22:41:44.725Z,100400.28
2023-01-31T22:44:11.907Z,100397.69
2023-01-31T22:46:39.098Z,100386.66
2023-01-31T22:49:06.158Z,100396.69
2023-01-31T22:51:33.392Z,100396.69
2023-01-31T22:54:00.434Z,100393.78
2023-01-31T22:56:32.463Z,100397.13
2023-01-31T22:59:03.785Z,100403.97
2023-01-31T23:01:37.457Z,100389.19
2023-01-31T23:04:10.784Z,100389.53
2023-01-31T23:06:38.493Z,100401.19
2023-01-31T23:09:05.744Z,100406.56
2023-01-31T23:11:33.046Z,100402.47
2023-01-31T23:14:00.163Z,100397.72
2023-01-31T23:16:46.106Z,100401.53
2023-01-31T23:19:13.928Z,100411.25
2023-01-31T23:21:43.362Z,100407.03
2023-01-31T23:24:18.959Z,100404.69
2023-01-31T23:26:47.529Z,100412.28
2023-01-31T23:29:14.799Z,100399.19
2023-01-31T23:31:42.091Z,100403.91
2023-01-31T23:34:09.336Z,100404.38
2023-01-31T23:36:36.970Z,100395.25
2023-01-31T23:39:05.123Z,100399.72
2023-01-31T23:41:33.910Z,100394.25
2023-01-31T23:44:00.879Z,100393.41
2023-01-31T23:46:28.002Z,100395.78
2023-01-31T23:48:55.086Z,100401.97
2023-01-31T23:51:22.190Z,100399.78
2023-01-31T23:53:49.273Z,100404.88
2023-01-31T23:56:16.301Z,100398.34
2023-01-31T23:58:43.503Z,100400.97
